Time;durP1;ratioP1;P1;durP2;ratioP2;P2;SDS_P1;SDS_P2;PMS_P1;PMS_P2;Temp;Humidity;BMP_temperature;BMP_pressure;BME280_temperature;BME280_humidity;BME280_pressure;Samples;Min_cycle;Max_cycle;Signal;HPM_P1;HPM_P2
2021/07/12 00:01:33;;;;;;;9.23;8.00;;;;;;;17.66;92.57;100809.03;124930;1092;64384;-76
2021/07/12 00:04:00;;;;;;;10.10;7.93;;;;;;;17.65;92.55;100813.58;125194;1092;64310;-75
2021/07/12 00:06:27;;;;;;;8.60;7.70;;;;;;;17.64;92.71;100808.45;124992;1093;64320;-75
2021/07/12 00:08:54;;;;;;;10.60;7.65;;;;;;;17.63;93.23;100812.16;124999;1093;64304;-75
2021/07/12 00:11:21;;;;;;;7.43;6.60;;;;;;;17.61;93.19;100811.55;124989;1093;64272;-75
2021/07/12 00:13:52;;;;;;;10.47;6.73;;;;;;;17.59;92.86;100811.77;124877;1093;64374;-75
2021/07/12 00:16:25;;;;;;;7.87;6.73;;;;;;;17.58;92.82;100820.87;125360;1092;64285;-76
2021/07/12 00:18:52;;;;;;;8.03;6.30;;;;;;;17.56;92.90;100817.58;125142;1093;64313;-76
2021/07/12 00:21:19;;;;;;;8.60;6.23;;;;;;;17.53;92.97;100810.80;125201;1092;64269;-77
2021/07/12 00:23:49;;;;;;;8.67;6.33;;;;;;;17.52;92.88;100808.33;124944;1093;64355;-76
2021/07/12 00:26:17;;;;;;;7.17;6.17;;;;;;;17.50;92.71;100808.53;124843;1093;64348;-77
2021/07/12 00:28:45;;;;;;;10.27;6.43;;;;;;;17.47;92.71;100808.17;125292;1093;64249;-77
2021/07/12 00:31:12;;;;;;;6.90;5.77;;;;;;;17.46;92.74;100811.88;125028;1093;64246;-76
2021/07/12 00:33:54;;;;;;;6.80;5.93;;;;;;;17.40;92.55;100805.52;124904;1092;64976;-78
2021/07/12 00:36:21;;;;;;;8.10;5.67;;;;;;;17.36;92.56;100801.62;125086;1092;64237;-78
2021/07/12 00:38:48;;;;;;;7.00;5.83;;;;;;;17.32;92.58;100800.44;125074;1093;64783;-78
2021/07/12 00:41:15;;;;;;;5.10;4.60;;;;;;;17.28;93.01;100799.23;124909;1093;64387;-75
2021/07/12 00:43:42;;;;;;;6.73;5.30;;;;;;;17.25;92.37;100805.00;124994;1093;64327;-76
2021/07/12 00:46:10;;;;;;;8.60;6.03;;;;;;;17.22;92.51;100794.73;124931;1093;64294;-77
2021/07/12 00:48:37;;;;;;;8.00;5.67;;;;;;;17.20;92.44;100781.53;124964;1093;64296;-75
2021/07/12 00:51:04;;;;;;;7.97;4.87;;;;;;;17.17;92.41;100773.94;124994;1093;64310;-76
2021/07/12 00:53:31;;;;;;;7.23;5.43;;;;;;;17.12;92.30;100779.11;125109;1093;64288;-77
2021/07/12 00:56:00;;;;;;;6.77;5.53;;;;;;;17.08;92.63;100769.85;124833;1093;64374;-79
2021/07/12 00:58:28;;;;;;;7.55;5.70;;;;;;;17.07;92.87;100777.08;124930;1092;64387;-78
2021/07/12 01:00:58;;;;;;;7.37;5.27;;;;;;;17.06;92.72;100780.78;125144;1092;64313;-76
2021/07/12 01:03:26;;;;;;;8.00;5.07;;;;;;;17.04;92.69;100777.52;125033;1092;64289;-75
2021/07/12 01:05:54;;;;;;;7.80;5.30;;;;;;;17.01;92.47;100771.77;124989;1092;64146;-76
2021/07/12 01:08:21;;;;;;;9.17;4.43;;;;;;;16.96;92.55;100774.25;125073;1093;64997;-78
2021/07/12 01:11:07;;;;;;;5.63;4.73;;;;;;;16.90;92.05;100770.59;124907;1092;64180;-78
2021/07/12 01:14:12;;;;;;;5.70;4.50;;;;;;;16.86;92.41;100769.38;125027;1092;64304;-77
2021/07/12 01:16:48;;;;;;;7.33;5.00;;;;;;;16.80;92.41;100764.84;125340;1093;64339;-79
2021/07/12 01:19:28;;;;;;;8.00;5.10;;;;;;;16.76;92.63;100768.98;125161;1093;64285;-80
2021/07/12 01:22:03;;;;;;;6.80;4.60;;;;;;;16.77;93.10;100770.64;125125;1093;64224;-76
2021/07/12 01:24:49;;;;;;;5.60;4.83;;;;;;;16.75;92.80;100761.99;125169;1093;64312;-78
2021/07/12 01:27:35;;;;;;;11.17;6.43;;;;;;;16.67;92.57;100761.19;124969;1093;64285;-77
2021/07/12 01:30:15;;;;;;;6.20;5.10;;;;;;;16.62;92.73;100752.98;124986;1093;64432;-75
2021/07/12 01:32:42;;;;;;;7.13;5.10;;;;;;;16.59;92.64;100756.07;124976;1092;64397;-78
2021/07/12 01:35:38;;;;;;;6.67;5.20;;;;;;;16.53;92.62;100751.56;125099;1093;64216;-77
2021/07/12 01:38:22;;;;;;;8.37;4.97;;;;;;;16.48;92.80;100746.03;125276;1093;64262;-75
2021/07/12 01:40:57;;;;;;;8.15;5.90;;;;;;;16.45;93.02;100743.80;124859;1092;64287;-76
2021/07/12 01:43:45;;;;;;;7.95;5.95;;;;;;;16.42;93.02;100746.88;125015;1093;64282;-76
2021/07/12 01:46:36;;;;;;;7.50;5.85;;;;;;;16.38;93.11;100741.12;125138;1093;64256;-78
2021/07/12 01:49:31;;;;;;;7.83;6.60;;;;;;;16.34;93.57;100739.08;124971;1093;64262;-77
2021/07/12 01:52:23;;;;;;;10.45;6.65;;;;;;;16.32;93.82;100747.34;124885;1093;64224;-75
2021/07/12 01:55:06;;;;;;;8.03;5.80;;;;;;;16.31;94.03;100743.02;124948;1093;64196;-77
2021/07/12 01:57:47;;;;;;;6.70;5.57;;;;;;;16.29;94.15;100739.72;124887;1093;64364;-76
2021/07/12 02:00:15;;;;;;;7.20;5.83;;;;;;;16.26;93.92;100738.30;125051;1092;64690;-78
2021/07/12 02:02:46;;;;;;;8.97;6.17;;;;;;;16.26;94.17;100737.48;124927;1092;64384;-78
2021/07/12 02:05:19;;;;;;;6.90;5.93;;;;;;;16.24;94.54;100737.69;125097;1093;64211;-78
2021/07/12 02:07:47;;;;;;;8.43;5.67;;;;;;;16.24;94.46;100723.48;125370;1092;64285;-78
2021/07/12 02:10:18;;;;;;;6.97;5.40;;;;;;;16.21;94.10;100721.22;125380;1092;64786;-75
2021/07/12 02:12:49;;;;;;;6.20;5.55;;;;;;;16.15;93.77;100720.23;125340;1092;64208;-78
2021/07/12 02:15:16;;;;;;;6.53;5.30;;;;;;;16.10;93.31;100715.48;125093;1092;64330;-76
2021/07/12 02:17:44;;;;;;;7.23;5.00;;;;;;;16.03;93.28;100712.02;125165;1093;64310;-75
2021/07/12 02:20:12;;;;;;;5.10;4.60;;;;;;;15.97;93.45;100698.66;124947;1093;64285;-75
2021/07/12 02:22:41;;;;;;;9.13;5.93;;;;;;;15.93;94.00;100700.11;124949;1092;64430;-78
2021/07/12 02:25:11;;;;;;;6.90;4.83;;;;;;;15.92;94.12;100698.45;125019;1093;64962;-76
2021/07/12 02:27:38;;;;;;;7.30;5.67;;;;;;;15.88;94.20;100704.23;125208;1092;64285;-76
2021/07/12 02:30:07;;;;;;;7.53;5.23;;;;;;;15.85;94.33;100699.32;124951;1092;64233;-75
2021/07/12 02:32:37;;;;;;;6.53;5.37;;;;;;;15.85;94.71;100696.64;125150;1093;64233;-75
2021/07/12 02:35:09;;;;;;;5.50;4.60;;;;;;;15.83;94.44;100692.51;125089;1093;64176;-77
2021/07/12 02:37:38;;;;;;;6.07;5.47;;;;;;;15.80;94.57;100693.75;124995;1093;64288;-78
2021/07/12 02:40:08;;;;;;;8.90;5.10;;;;;;;15.79;94.75;100688.61;125226;1093;64285;-77
2021/07/12 02:42:40;;;;;;;8.77;5.50;;;;;;;15.76;94.58;100691.72;125051;1092;64389;-76
2021/07/12 02:45:09;;;;;;;5.80;4.90;;;;;;;15.72;94.79;100683.28;124972;1092;64310;-75
2021/07/12 02:47:40;;;;;;;6.00;5.07;;;;;;;15.69;94.77;100683.67;125086;1093;64211;-75
2021/07/12 02:50:09;;;;;;;9.50;4.90;;;;;;;15.67;95.07;100683.06;124961;1093;64256;-75
2021/07/12 02:52:51;;;;;;;8.93;5.70;;;;;;;15.67;95.32;100680.39;124962;1092;64390;-77
2021/07/12 02:55:18;;;;;;;6.30;5.50;;;;;;;15.63;94.92;100679.98;125262;1093;64291;-76
2021/07/12 02:57:46;;;;;;;7.73;5.33;;;;;;;15.61;95.13;100673.20;124989;1092;64313;-78
2021/07/12 03:00:13;;;;;;;7.83;6.40;;;;;;;15.57;95.02;100677.31;124940;1092;64393;-75
2021/07/12 03:02:42;;;;;;;7.00;5.60;;;;;;;15.54;95.04;100677.75;125007;1092;64278;-75
2021/07/12 03:05:10;;;;;;;8.47;5.37;;;;;;;15.54;95.81;100685.77;125047;1093;64263;-78
2021/07/12 03:07:55;;;;;;;6.93;5.27;;;;;;;15.53;95.93;100684.11;124945;1093;64321;-77
2021/07/12 03:10:30;;;;;;;6.90;5.50;;;;;;;15.50;96.08;100680.81;125238;1093;64288;-78
2021/07/12 03:13:07;;;;;;;6.20;4.83;;;;;;;15.49;96.07;100683.69;125209;1093;64352;-80
2021/07/12 03:15:40;;;;;;;7.25;5.55;;;;;;;15.48;96.29;100682.06;124959;1093;64295;-75
2021/07/12 03:18:30;;;;;;;6.80;5.10;;;;;;;15.46;96.30;100684.94;125290;1093;64184;-78
2021/07/12 03:21:01;;;;;;;11.23;5.20;;;;;;;15.46;96.88;100679.59;125203;1093;64288;-78
2021/07/12 03:23:39;;;;;;;6.63;5.40;;;;;;;15.47;97.13;100675.90;125331;1092;64243;-78
2021/07/12 03:26:08;;;;;;;7.50;5.33;;;;;;;15.49;97.00;100684.53;124962;1092;64338;-75
2021/07/12 03:28:37;;;;;;;8.73;5.70;;;;;;;15.53;97.17;100678.77;125102;1092;64307;-77
2021/07/12 03:31:08;;;;;;;9.10;5.43;;;;;;;15.57;97.33;100671.97;125140;1093;64275;-77
2021/07/12 03:33:38;;;;;;;6.73;4.90;;;;;;;15.61;97.46;100675.88;125108;1093;64287;-76
2021/07/12 03:36:05;;;;;;;6.60;5.17;;;;;;;15.65;97.29;100677.10;125339;1092;64378;-77
2021/07/12 03:38:33;;;;;;;5.17;4.67;;;;;;;15.67;96.96;100675.86;124887;1092;64896;-77
2021/07/12 03:41:01;;;;;;;5.40;4.70;;;;;;;15.69;96.68;100671.13;125094;1093;64304;-78
2021/07/12 03:43:28;;;;;;;7.27;5.17;;;;;;;15.74;96.68;100678.55;125300;1093;64310;-78
2021/07/12 03:45:58;;;;;;;8.87;4.63;;;;;;;15.79;96.87;100681.43;125073;1093;64317;-75
2021/07/12 03:48:41;;;;;;;8.50;5.37;;;;;;;15.84;96.55;100678.13;125053;1093;64387;-76
2021/07/12 03:51:27;;;;;;;6.60;3.93;;;;;;;15.88;96.65;100682.83;125008;1093;64307;-77
2021/07/12 03:53:55;;;;;;;6.07;5.27;;;;;;;15.93;96.86;100681.38;125008;1093;64261;-77
2021/07/12 03:56:22;;;;;;;7.43;5.40;;;;;;;15.98;96.38;100670.86;125154;1092;66002;-79
2021/07/12 03:58:49;;;;;;;6.13;4.93;;;;;;;15.97;95.85;100675.39;125016;1092;64340;-76
2021/07/12 04:01:21;;;;;;;11.17;4.80;;;;;;;15.98;95.68;100670.86;124761;1093;64291;-76
2021/07/12 04:03:51;;;;;;;5.40;4.75;;;;;;;15.99;95.51;100670.66;125098;1092;62085;-76
2021/07/12 04:06:18;;;;;;;6.33;5.00;;;;;;;15.99;94.92;100657.28;124855;1093;64227;-78
2021/07/12 04:08:46;;;;;;;6.73;4.57;;;;;;;16.00;95.57;100658.94;124949;1093;64392;-76
2021/07/12 04:11:15;;;;;;;7.85;4.55;;;;;;;16.02;95.18;100650.67;124871;1093;64448;-76
2021/07/12 04:13:42;;;;;;;9.07;5.33;;;;;;;16.02;94.91;100645.33;125207;1093;64236;-78
2021/07/12 04:16:09;;;;;;;8.00;5.10;;;;;;;16.03;95.27;100652.34;125085;1092;64176;-76
2021/07/12 04:18:37;;;;;;;8.53;5.20;;;;;;;16.09;96.04;100656.84;124806;1093;64173;-75
2021/07/12 04:21:04;;;;;;;5.60;5.00;;;;;;;16.13;96.51;100654.54;125068;1093;64384;-75
2021/07/12 04:23:31;;;;;;;7.43;5.33;;;;;;;16.19;96.54;100661.72;125070;1093;64310;-78
2021/07/12 04:25:58;;;;;;;5.57;4.93;;;;;;;16.22;96.57;100664.80;125086;1092;64291;-78
2021/07/12 04:28:25;;;;;;;7.47;3.83;;;;;;;16.27;96.37;100658.81;124920;1092;64317;-76
2021/07/12 04:30:52;;;;;;;6.87;5.17;;;;;;;16.30;96.20;100659.21;124834;1093;64287;-77
2021/07/12 04:33:19;;;;;;;5.83;4.80;;;;;;;16.35;96.23;100661.24;125066;1093;64285;-75
2021/07/12 04:35:46;;;;;;;7.63;5.10;;;;;;;16.40;96.13;100664.09;124797;1093;64352;-74
2021/07/12 04:38:13;;;;;;;6.20;5.10;;;;;;;16.49;96.34;100667.33;125023;1093;64211;-76
2021/07/12 04:40:40;;;;;;;6.17;5.00;;;;;;;16.56;95.77;100668.13;125009;1093;64214;-78
2021/07/12 04:43:07;;;;;;;6.85;5.50;;;;;;;16.61;95.70;100676.33;124874;1092;64875;-78
2021/07/12 04:45:34;;;;;;;8.93;5.30;;;;;;;16.69;95.68;100673.41;124964;1092;64384;-76
2021/07/12 04:48:02;;;;;;;12.70;5.30;;;;;;;16.75;95.39;100673.59;124911;1093;64234;-77
2021/07/12 04:50:29;;;;;;;9.50;4.33;;;;;;;16.81;94.97;100670.05;124990;1093;64310;-76
2021/07/12 04:52:56;;;;;;;7.07;4.33;;;;;;;16.84;94.66;100667.77;125164;1092;65146;-79
2021/07/12 04:55:23;;;;;;;8.30;4.70;;;;;;;16.91;94.80;100665.04;124992;1093;64291;-75
2021/07/12 04:57:54;;;;;;;7.60;4.90;;;;;;;16.99;94.57;100656.73;125054;1093;64314;-76
2021/07/12 05:00:22;;;;;;;6.83;4.33;;;;;;;17.08;94.78;100660.78;124854;1092;64291;-76
2021/07/12 05:02:49;;;;;;;13.23;4.17;;;;;;;17.14;93.89;100664.45;124945;1093;64293;-76
2021/07/12 05:05:17;;;;;;;7.20;4.00;;;;;;;17.17;93.89;100663.19;125162;1091;124118;-74
2021/07/12 05:07:44;;;;;;;9.20;4.90;;;;;;;17.21;93.73;100667.07;124872;1093;65159;-74
2021/07/12 05:10:12;;;;;;;5.97;4.43;;;;;;;17.29;94.02;100667.61;125000;1093;64322;-74
2021/07/12 05:12:39;;;;;;;8.43;3.90;;;;;;;17.40;93.66;100674.11;124841;1093;64261;-74
2021/07/12 05:15:08;;;;;;;6.90;4.13;;;;;;;17.52;93.25;100672.35;124991;1093;64381;-72
2021/07/12 05:17:37;;;;;;;6.80;4.17;;;;;;;17.68;93.24;100679.02;125053;1093;64435;-72
2021/07/12 05:20:08;;;;;;;8.17;3.93;;;;;;;17.87;92.47;100677.20;124761;1093;64346;-73
2021/07/12 05:22:35;;;;;;;12.87;4.20;;;;;;;18.03;91.41;100677.63;124760;1092;64305;-73
2021/07/12 05:25:03;;;;;;;7.00;3.80;;;;;;;18.10;91.32;100672.99;124684;1093;65435;-74
2021/07/12 05:27:31;;;;;;;7.00;3.53;;;;;;;18.16;91.30;100666.73;125017;1093;64329;-73
2021/07/12 05:29:58;;;;;;;4.87;3.07;;;;;;;18.17;91.07;100665.70;124645;1091;65436;-73
2021/07/12 05:32:25;;;;;;;4.27;2.90;;;;;;;18.19;91.25;100660.08;124670;1092;65442;-73
2021/07/12 05:34:52;;;;;;;5.93;3.73;;;;;;;18.22;90.27;100665.02;124684;1093;65361;-74
2021/07/12 05:37:19;;;;;;;7.55;3.75;;;;;;;18.30;89.85;100670.89;124733;1092;64320;-74
2021/07/12 05:39:46;;;;;;;5.57;3.50;;;;;;;18.38;89.50;100663.55;124705;1092;64291;-75
2021/07/12 05:42:13;;;;;;;4.93;2.50;;;;;;;18.45;89.30;100665.11;124697;1093;64371;-74
2021/07/12 05:44:40;;;;;;;6.57;3.53;;;;;;;18.56;88.54;100665.39;124726;1093;64361;-73
2021/07/12 05:47:07;;;;;;;6.45;3.95;;;;;;;18.64;88.45;100660.51;124647;1092;64304;-73
2021/07/12 05:49:34;;;;;;;5.47;2.83;;;;;;;18.75;88.22;100665.09;124705;1093;64298;-73
2021/07/12 05:52:01;;;;;;;7.10;3.73;;;;;;;18.88;86.85;100665.97;124795;1093;65516;-74
2021/07/12 05:54:28;;;;;;;6.93;3.10;;;;;;;18.99;86.45;100659.78;125035;1092;64875;-74
2021/07/12 05:56:55;;;;;;;4.27;3.40;;;;;;;19.10;85.69;100661.66;125025;1093;64885;-73
2021/07/12 05:59:22;;;;;;;5.00;2.87;;;;;;;19.20;85.08;100653.03;124667;1093;64234;-74
2021/07/12 06:01:50;;;;;;;4.90;2.60;;;;;;;19.26;84.12;100657.48;124715;1093;64288;-75
2021/07/12 06:04:18;;;;;;;5.03;2.73;;;;;;;19.31;84.27;100654.09;125060;1093;64643;-75
2021/07/12 06:06:45;;;;;;;6.90;2.97;;;;;;;19.44;84.98;100650.34;124628;1093;64345;-74
2021/07/12 06:09:13;;;;;;;4.03;2.33;;;;;;;19.54;83.96;100655.95;124680;1092;64309;-74
2021/07/12 06:11:40;;;;;;;4.13;2.40;;;;;;;19.70;84.67;100643.66;124728;1092;65486;-73
2021/07/12 06:14:07;;;;;;;3.40;2.47;;;;;;;19.82;83.55;100647.16;124863;1093;64265;-72
2021/07/12 06:16:34;;;;;;;7.57;3.63;;;;;;;19.90;82.79;100644.10;124706;1092;64318;-73
2021/07/12 06:19:02;;;;;;;3.77;2.10;;;;;;;20.01;83.07;100630.85;124664;1093;64400;-73
2021/07/12 06:21:29;;;;;;;20.07;15.10;;;;;;;20.05;81.73;100643.59;124750;1092;64288;-73
2021/07/12 06:23:57;;;;;;;3.37;2.97;;;;;;;20.12;81.47;100646.95;124717;1093;64237;-73
2021/07/12 06:26:24;;;;;;;3.50;2.93;;;;;;;20.16;80.92;100640.03;124708;1093;64783;-73
2021/07/12 06:28:51;;;;;;;13.33;9.07;;;;;;;20.21;81.40;100639.34;124696;1093;64304;-73
2021/07/12 06:31:18;;;;;;;3.30;2.03;;;;;;;20.25;80.70;100637.80;124750;1092;64948;-73
2021/07/12 06:33:45;;;;;;;5.60;2.87;;;;;;;20.32;81.11;100640.34;124720;1093;64315;-73
2021/07/12 06:36:12;;;;;;;5.90;2.70;;;;;;;20.36;80.73;100634.23;124716;1093;64380;-73
2021/07/12 06:38:39;;;;;;;4.27;2.67;;;;;;;20.39;80.03;100630.23;124706;1093;64296;-72
2021/07/12 06:41:06;;;;;;;5.90;2.50;;;;;;;20.45;80.06;100639.23;124739;1093;64304;-73
2021/07/12 06:43:33;;;;;;;2.83;2.30;;;;;;;20.51;79.23;100627.48;124667;1093;64690;-72
2021/07/12 06:46:00;;;;;;;5.00;2.43;;;;;;;20.55;78.44;100626.75;124762;1092;64301;-72
2021/07/12 06:48:28;;;;;;;7.60;4.63;;;;;;;20.59;78.01;100618.20;124846;1093;64285;-72
2021/07/12 06:50:55;;;;;;;3.10;2.00;;;;;;;20.63;78.25;100617.47;124707;1093;64314;-73
2021/07/12 06:53:34;;;;;;;3.97;2.50;;;;;;;20.71;78.63;100621.66;124739;1093;64303;-72
2021/07/12 06:56:03;;;;;;;5.50;2.20;;;;;;;20.78;77.19;100619.60;124902;1093;64349;-72
2021/07/12 06:58:31;;;;;;;12.30;8.03;;;;;;;20.84;76.48;100623.20;124693;1093;64397;-75
2021/07/12 07:00:59;;;;;;;4.47;2.30;;;;;;;20.89;76.50;100617.89;124658;1093;64304;-73
2021/07/12 07:03:26;;;;;;;4.80;2.50;;;;;;;20.94;76.65;100618.80;124670;1092;64351;-74
2021/07/12 07:05:53;;;;;;;2.70;2.13;;;;;;;21.03;75.85;100618.39;124653;1093;64246;-73
2021/07/12 07:08:20;;;;;;;2.60;2.00;;;;;;;21.11;76.42;100613.39;124696;1093;64360;-73
2021/07/12 07:10:47;;;;;;;3.60;1.90;;;;;;;21.23;76.85;100616.00;124671;1093;64288;-74
2021/07/12 07:13:14;;;;;;;4.03;1.90;;;;;;;21.35;75.31;100613.19;124706;1093;64240;-73
2021/07/12 07:15:41;;;;;;;2.20;1.30;;;;;;;21.48;74.45;100609.34;124667;1092;64218;-73
2021/07/12 07:18:08;;;;;;;3.70;1.73;;;;;;;21.57;74.40;100614.07;124677;1093;65483;-73
2021/07/12 07:20:35;;;;;;;2.07;1.50;;;;;;;21.71;74.40;100605.59;124657;1093;64314;-73
2021/07/12 07:23:03;;;;;;;4.17;1.40;;;;;;;21.81;73.21;100603.02;124761;1093;64291;-73
2021/07/12 07:25:30;;;;;;;2.67;1.37;;;;;;;21.94;73.54;100608.03;124804;1093;64295;-73
2021/07/12 07:27:57;;;;;;;3.80;1.60;;;;;;;22.04;72.29;100603.80;124772;1093;64300;-73
2021/07/12 07:30:24;;;;;;;2.00;1.30;;;;;;;22.14;71.14;100609.32;124710;1093;64310;-74
2021/07/12 07:32:51;;;;;;;2.23;1.40;;;;;;;22.27;71.79;100608.97;124688;1093;64467;-72
2021/07/12 07:35:19;;;;;;;2.57;1.43;;;;;;;22.45;72.05;100606.97;124725;1093;64918;-73
2021/07/12 07:37:47;;;;;;;5.70;3.53;;;;;;;22.55;69.60;100609.77;124684;1093;64283;-75
2021/07/12 07:40:17;;;;;;;2.17;1.40;;;;;;;22.63;70.08;100605.77;124767;1093;64219;-74
2021/07/12 07:42:45;;;;;;;2.40;1.60;;;;;;;22.77;70.27;100606.97;124704;1093;64304;-73
2021/07/12 07:45:13;;;;;;;3.30;1.90;;;;;;;22.91;69.80;100596.52;124687;1093;64410;-74
2021/07/12 07:47:44;;;;;;;3.90;2.10;;;;;;;23.10;70.17;100594.24;124749;1093;64354;-73
2021/07/12 07:50:20;;;;;;;3.73;1.90;;;;;;;23.30;69.74;100602.49;124761;1093;64387;-72
2021/07/12 07:52:47;;;;;;;2.53;1.67;;;;;;;23.38;67.42;100598.48;124752;1093;64423;-73
2021/07/12 07:55:15;;;;;;;3.17;1.77;;;;;;;23.47;67.87;100598.80;124757;1093;64289;-73
2021/07/12 07:57:42;;;;;;;3.20;2.00;;;;;;;23.58;67.78;100601.28;124682;1093;64343;-74
2021/07/12 08:00:16;;;;;;;2.73;2.03;;;;;;;23.77;67.23;100600.84;124862;1092;64319;-73
2021/07/12 08:02:44;;;;;;;2.85;2.08;;;;;;;23.90;65.69;100596.83;124746;1092;64352;-73
2021/07/12 08:05:11;;;;;;;5.47;2.50;;;;;;;24.03;65.30;100603.64;124922;1092;64294;-74
2021/07/12 08:07:38;;;;;;;5.27;1.97;;;;;;;24.20;65.54;100598.80;124792;1092;64304;-71
2021/07/12 08:10:08;;;;;;;3.30;2.40;;;;;;;24.41;65.66;100597.73;124806;1093;64885;-71
2021/07/12 08:12:36;;;;;;;3.30;2.20;;;;;;;24.66;64.28;100595.36;125005;1093;64360;-71
2021/07/12 08:15:05;;;;;;;2.90;2.05;;;;;;;24.85;63.17;100598.34;124885;1093;64285;-71
2021/07/12 08:17:32;;;;;;;2.43;2.17;;;;;;;24.98;62.56;100595.06;124866;1093;64377;-72
2021/07/12 08:19:59;;;;;;;2.97;2.27;;;;;;;25.13;61.80;100595.02;124705;1093;64304;-73
2021/07/12 08:22:52;;;;;;;2.50;1.93;;;;;;;25.26;61.07;100592.86;124666;1093;64523;-73
2021/07/12 08:25:20;;;;;;;2.60;1.83;;;;;;;25.26;58.96;100588.23;124802;1093;64861;-74
2021/07/12 08:27:49;;;;;;;3.50;2.75;;;;;;;25.22;59.77;100585.25;124690;1093;64295;-74
2021/07/12 08:30:16;;;;;;;5.20;2.47;;;;;;;25.17;59.39;100582.53;124950;1093;64317;-73
2021/07/12 08:32:45;;;;;;;3.37;2.63;;;;;;;25.16;60.90;100578.20;124732;1092;64333;-74
2021/07/12 08:35:14;;;;;;;4.17;1.93;;;;;;;25.19;61.92;100572.20;124751;1093;64401;-72
2021/07/12 08:37:42;;;;;;;4.37;2.60;;;;;;;25.31;60.95;100579.26;124747;1093;64349;-73
2021/07/12 08:40:10;;;;;;;5.70;3.57;;;;;;;25.44;59.39;100573.27;124697;1093;64244;-74
2021/07/12 08:42:37;;;;;;;18.93;13.10;;;;;;;25.47;59.40;100578.13;124720;1093;64338;-74
2021/07/12 08:45:06;;;;;;;7.70;5.70;;;;;;;25.59;59.85;100586.77;124636;1093;64288;-75
2021/07/12 08:47:33;;;;;;;3.13;2.30;;;;;;;25.69;59.26;100577.75;124678;1093;65387;-73
2021/07/12 08:50:01;;;;;;;2.90;2.60;;;;;;;25.67;59.71;100579.13;124770;1092;64288;-75
2021/07/12 08:52:28;;;;;;;3.87;2.70;;;;;;;25.62;57.80;100574.53;124702;1093;64265;-74
2021/07/12 08:54:55;;;;;;;3.23;2.63;;;;;;;25.60;57.88;100576.72;124687;1093;64383;-73
2021/07/12 08:57:22;;;;;;;4.77;3.00;;;;;;;25.62;58.79;100580.77;124706;1093;64208;-74
2021/07/12 08:59:49;;;;;;;3.13;2.77;;;;;;;25.67;59.30;100579.13;124722;1093;64364;-75
2021/07/12 09:02:19;;;;;;;3.20;2.73;;;;;;;25.74;58.69;100575.03;124769;1092;65529;-72
2021/07/12 09:04:51;;;;;;;4.33;3.03;;;;;;;25.80;58.16;100571.19;124825;1093;64374;-73
2021/07/12 09:07:27;;;;;;;3.77;3.10;;;;;;;25.90;58.07;100575.77;124675;1093;64251;-73
2021/07/12 09:10:02;;;;;;;3.67;2.63;;;;;;;25.98;57.87;100575.19;124679;1093;64308;-74
2021/07/12 09:12:50;;;;;;;3.13;2.80;;;;;;;25.99;55.66;100574.11;124729;1092;64352;-73
2021/07/12 09:15:22;;;;;;;3.37;2.33;;;;;;;25.95;56.51;100562.17;124843;1093;64336;-73
2021/07/12 09:17:53;;;;;;;4.87;2.43;;;;;;;26.07;58.35;100552.85;124794;1093;64294;-72
2021/07/12 09:20:31;;;;;;;6.07;4.40;;;;;;;26.15;56.42;100554.97;124736;1093;64310;-73
2021/07/12 09:22:59;;;;;;;3.60;2.60;;;;;;;26.13;54.95;100551.72;124678;1093;64964;-73
2021/07/12 09:25:31;;;;;;;3.33;2.70;;;;;;;26.06;55.66;100553.96;124608;1093;64754;-73
2021/07/12 09:27:58;;;;;;;2.83;2.03;;;;;;;26.03;55.75;100558.86;124644;1093;64400;-73
2021/07/12 09:30:33;;;;;;;3.47;2.80;;;;;;;26.10;56.61;100557.74;124678;1093;64406;-73
2021/07/12 09:33:00;;;;;;;4.23;2.47;;;;;;;26.27;56.07;100552.72;124734;1093;64246;-73
2021/07/12 09:35:29;;;;;;;2.73;2.37;;;;;;;26.50;56.23;100539.46;124767;1092;64413;-72
2021/07/12 09:37:59;;;;;;;2.50;2.30;;;;;;;26.80;56.05;100532.98;124644;1093;65536;-73
2021/07/12 09:40:30;;;;;;;32.10;20.60;;;;;;;26.98;54.80;100524.05;124722;1093;64297;-72
2021/07/12 09:42:57;;;;;;;3.90;2.60;;;;;;;27.14;53.74;100535.59;124620;1093;64300;-75
2021/07/12 09:45:28;;;;;;;5.45;4.35;;;;;;;27.16;52.31;100541.57;124659;1093;64313;-73
2021/07/12 09:48:07;;;;;;;3.97;2.57;;;;;;;26.99;52.48;100531.14;124852;1093;64291;-74
2021/07/12 09:50:34;;;;;;;2.23;2.00;;;;;;;26.85;53.65;100530.99;124831;1093;64392;-74
2021/07/12 09:53:06;;;;;;;2.50;2.30;;;;;;;26.95;54.68;100529.28;124635;1092;64860;-73
2021/07/12 09:55:35;;;;;;;4.93;2.50;;;;;;;27.05;54.35;100526.42;124635;1093;64288;-73
2021/07/12 09:58:14;;;;;;;63.43;52.17;;;;;;;27.11;53.78;100527.19;124759;1093;64304;-73
2021/07/12 10:00:59;;;;;;;3.15;2.10;;;;;;;27.15;52.24;100525.52;124884;1093;64280;-74
2021/07/12 10:03:27;;;;;;;7.33;3.47;;;;;;;27.12;52.67;100537.80;124803;1093;64313;-73
2021/07/12 10:05:55;;;;;;;8.40;5.27;;;;;;;27.23;52.25;100533.08;124832;1093;64355;-72
2021/07/12 10:08:22;;;;;;;21.27;15.83;;;;;;;27.36;52.24;100526.11;124691;1093;64291;-74
2021/07/12 10:10:49;;;;;;;47.17;34.60;;;;;;;27.51;52.47;100525.91;124740;1093;64289;-75
2021/07/12 10:13:17;;;;;;;3.77;2.57;;;;;;;27.61;52.06;100520.33;124751;1093;64288;-74
2021/07/12 10:15:44;;;;;;;4.10;3.00;;;;;;;27.59;51.17;100517.08;124692;1093;64316;-74
2021/07/12 10:18:12;;;;;;;4.03;2.67;;;;;;;27.54;51.51;100519.05;124943;1093;64386;-74
2021/07/12 10:20:39;;;;;;;4.50;3.07;;;;;;;27.50;52.29;100516.13;124703;1092;64301;-74
2021/07/12 10:23:08;;;;;;;4.27;2.77;;;;;;;27.58;51.99;100511.92;124689;1093;64278;-74
2021/07/12 10:25:36;;;;;;;2.90;2.43;;;;;;;27.60;52.63;100507.79;124718;1092;64313;-74
2021/07/12 10:28:05;;;;;;;37.80;25.83;;;;;;;27.60;51.60;100512.44;124770;1093;64371;-74
2021/07/12 10:30:37;;;;;;;5.50;3.10;;;;;;;27.70;51.67;100504.13;124969;1093;64509;-73
2021/07/12 10:33:09;;;;;;;3.55;2.70;;;;;;;27.75;51.26;100503.23;124895;1093;64301;-74
2021/07/12 10:35:47;;;;;;;10.13;6.47;;;;;;;27.76;51.43;100494.77;124835;1092;64323;-73
2021/07/12 10:38:18;;;;;;;3.23;2.47;;;;;;;27.74;50.78;100496.17;124816;1093;64314;-72
2021/07/12 10:40:48;;;;;;;4.40;3.07;;;;;;;27.71;50.79;100491.30;124808;1093;64674;-72
2021/07/12 10:43:52;;;;;;;3.60;2.47;;;;;;;27.69;51.59;100488.89;124959;1093;64310;-72
2021/07/12 10:46:40;;;;;;;3.70;2.77;;;;;;;27.67;51.23;100491.09;124893;1092;64406;-74
2021/07/12 10:49:32;;;;;;;5.83;2.63;;;;;;;27.69;51.05;100490.78;124959;1092;64311;-73
2021/07/12 10:51:59;;;;;;;2.83;2.20;;;;;;;27.78;52.25;100489.03;125038;1092;64413;-74
2021/07/12 10:55:03;;;;;;;5.25;2.50;;;;;;;27.98;51.59;100479.75;124853;1093;64288;-74
2021/07/12 10:57:30;;;;;;;3.20;2.43;;;;;;;28.22;51.71;100480.45;124923;1093;64610;-74
2021/07/12 11:00:09;;;;;;;3.40;2.50;;;;;;;28.30;50.24;100476.21;124810;1093;64818;-72
2021/07/12 11:02:39;;;;;;;2.60;1.70;;;;;;;28.21;49.38;100467.91;124894;1093;64301;-74
2021/07/12 11:05:08;;;;;;;3.10;2.20;;;;;;;28.28;51.30;100466.72;124926;1093;64395;-74
2021/07/12 11:07:45;;;;;;;6.73;4.37;;;;;;;28.33;48.69;100472.91;124899;1093;64358;-74
2021/07/12 11:10:31;;;;;;;2.33;2.03;;;;;;;28.41;48.40;100472.22;125064;1093;64380;-73
2021/07/12 11:13:00;;;;;;;5.50;3.30;;;;;;;28.65;50.20;100474.00;124953;1092;64291;-74
2021/07/12 11:15:32;;;;;;;34.43;21.13;;;;;;;28.90;49.34;100475.41;125104;1093;64288;-73
2021/07/12 11:18:11;;;;;;;3.70;2.97;;;;;;;29.19;48.92;100458.73;124940;1093;64451;-73
2021/07/12 11:20:54;;;;;;;4.57;2.93;;;;;;;29.40;47.88;100455.56;125091;1092;64315;-73
2021/07/12 11:23:43;;;;;;;4.63;2.10;;;;;;;29.38;45.26;100460.53;124926;1093;64291;-73
2021/07/12 11:26:19;;;;;;;59.63;50.07;;;;;;;29.21;46.37;100450.23;124925;1092;64284;-73
2021/07/12 11:28:48;;;;;;;5.20;2.43;;;;;;;29.30;47.73;100448.39;124918;1093;64275;-75
2021/07/12 11:31:48;;;;;;;4.70;2.13;;;;;;;29.41;47.42;100443.50;124913;1093;64307;-74
2021/07/12 11:34:23;;;;;;;3.90;2.10;;;;;;;29.29;45.57;100432.32;125062;1092;64441;-75